Ojuelas, Texas
Current Conditions -  °F | °C
As of 11:15 AM on Thursday 27 Nov 2014 (Local Time) from KHBV Reporting Station
Clear Clear  
Wind Chill: 68°   Ceiling: Unl
Heat Index: 68°   Visibility: 10mi
Dew Point: 43°   Wind: 6mph
Humidity: 41%   Direction: 80°E
Pressure: 30.44"   Gusts: NA
Location:  27.4459°N, 99.0184°W
Report Text: KHBV 271715Z AUTO 08005KT 10SM CLR 20/06 A3044 RMK AO2 T01980062
Loading
Personal Weather Stations






























Interactive Weather Map New forecast layout! Learn more

10-Day Weather Forecast

Advertisements
Track Severe Weather on mobile